Bucks Landing, Louisiana
Current Conditions -  °F | °C
As of 6:53 AM on Saturday 20 Dec 2014 (Local Time) from KAEX Reporting Station
Overcast Overcast  
Wind Chill: 43°   Ceiling: 800
Heat Index: 47°   Visibility: 10mi
Dew Point: 44°   Wind: 8mph
Humidity: 90%   Direction: 30°NNE
Pressure: 30.18"   Gusts: NA
Location:  31.0356°N, 92.5053°W
Report Text: KAEX 201253Z 03007KT 10SM OVC008 08/07 A3018 RMK AO2 SLP223 T00830067
Loading
Personal Weather Stations






























Interactive Weather Map New forecast layout! Learn more

10-Day Weather Forecast

Advertisements
Track Severe Weather on mobile